Time;durP1;ratioP1;P1;durP2;ratioP2;P2;SDS_P1;SDS_P2;PMS_P1;PMS_P2;Temp;Humidity;BMP_temperature;BMP_pressure;BME280_temperature;BME280_humidity;BME280_pressure;Samples;Min_cycle;Max_cycle;Signal;HPM_P1;HPM_P2
2021/08/15 00:00:43;;;;;;;12.60;7.30;;;;;;;18.42;88.81;99120.22;5113823;28;20563;-81
2021/08/15 00:03:12;;;;;;;10.38;7.55;;;;;;;18.50;88.53;99115.19;5107507;27;20284;-82
2021/08/15 00:05:39;;;;;;;11.63;7.38;;;;;;;18.33;89.25;99115.03;5114423;28;20075;-81
2021/08/15 00:08:08;;;;;;;10.18;7.22;;;;;;;18.20;90.53;99107.00;5114425;28;20055;-81
2021/08/15 00:10:37;;;;;;;12.02;7.22;;;;;;;18.08;90.82;99090.50;5129033;27;20047;-81
2021/08/15 00:13:04;;;;;;;10.43;7.68;;;;;;;18.17;90.57;99101.97;5134665;27;20201;-81
2021/08/15 00:15:31;;;;;;;9.30;7.30;;;;;;;18.16;90.40;99103.88;5121372;27;20047;-81
2021/08/15 00:17:58;;;;;;;12.07;7.40;;;;;;;18.14;90.19;99094.19;5107886;28;20055;-81
2021/08/15 00:20:28;;;;;;;12.18;7.88;;;;;;;18.32;89.49;99096.88;5102267;27;20043;-81
2021/08/15 00:22:55;;;;;;;;;;;;;;;18.19;90.33;99100.66;5113893;28;20050;-80
2021/08/15 00:25:23;;;;;;;14.65;7.50;;;;;;;18.14;89.99;99086.78;5113463;28;20236;-81
2021/08/15 00:27:50;;;;;;;12.75;7.55;;;;;;;18.18;89.30;99078.88;5112972;28;20395;-81
2021/08/15 00:30:18;;;;;;;10.18;7.93;;;;;;;18.16;89.32;99076.38;5113968;28;20047;-81
2021/08/15 00:32:46;;;;;;;9.13;7.03;;;;;;;18.07;89.57;99083.31;5113552;28;20483;-81
2021/08/15 00:35:12;;;;;;;12.70;7.30;;;;;;;17.87;90.08;99081.66;5113612;28;20056;-81
2021/08/15 00:37:39;;;;;;;11.23;7.75;;;;;;;17.79;90.91;99064.66;5101083;28;20055;-81
2021/08/15 00:40:09;;;;;;;13.57;6.45;;;;;;;18.00;90.29;99080.63;5113908;28;20039;-81
2021/08/15 00:42:37;;;;;;;12.45;6.97;;;;;;;17.83;90.65;99057.63;5113977;28;20079;-81
2021/08/15 00:45:05;;;;;;;11.68;7.63;;;;;;;17.93;90.30;99055.19;5113028;28;20055;-81
2021/08/15 00:47:32;;;;;;;13.38;7.00;;;;;;;17.98;90.42;99063.53;5113567;28;20445;-81
2021/08/15 00:49:59;;;;;;;11.65;7.10;;;;;;;18.04;89.99;99073.59;5113070;28;20505;-81
2021/08/15 00:52:26;;;;;;;10.10;7.47;;;;;;;18.04;89.40;99067.28;5113812;28;20105;-81
2021/08/15 00:54:54;;;;;;;19.30;7.68;;;;;;;17.90;89.43;99060.28;5106986;28;20063;-81
2021/08/15 00:57:22;;;;;;;16.02;9.30;;;;;;;17.94;89.52;99054.09;5113957;28;20479;-81
2021/08/15 00:59:50;;;;;;;12.30;7.85;;;;;;;18.07;89.11;99066.81;5113219;28;20439;-81
2021/08/15 01:02:17;;;;;;;11.68;7.78;;;;;;;17.74;89.72;99042.53;5113420;28;20047;-81
2021/08/15 01:04:44;;;;;;;14.63;7.85;;;;;;;17.66;91.03;99051.97;5113301;28;20047;-80
2021/08/15 01:07:11;;;;;;;11.45;7.70;;;;;;;17.71;90.65;99049.34;5113175;28;20060;-81
2021/08/15 01:09:41;;;;;;;9.70;7.35;;;;;;;17.56;90.92;99057.19;5104023;28;20048;-81
2021/08/15 01:12:08;;;;;;;10.18;7.05;;;;;;;17.40;91.15;99056.75;5110598;28;20096;-80
2021/08/15 01:14:35;;;;;;;11.73;7.55;;;;;;;17.41;91.62;99050.19;5113068;28;20051;-81
2021/08/15 01:17:03;;;;;;;8.35;6.53;;;;;;;17.57;90.42;99040.47;5112686;28;20052;-81
2021/08/15 01:19:31;;;;;;;12.90;7.10;;;;;;;17.52;90.13;99040.31;5113021;28;20495;-81
2021/08/15 01:21:59;;;;;;;13.30;8.10;;;;;;;17.59;89.65;99032.81;5112304;28;20047;-80
2021/08/15 01:24:27;;;;;;;12.20;8.02;;;;;;;17.58;90.23;99052.28;5112872;28;20062;-80
2021/08/15 01:26:56;;;;;;;13.45;7.20;;;;;;;17.49;90.20;99046.25;5111632;28;20097;-81
2021/08/15 01:29:25;;;;;;;12.05;7.22;;;;;;;17.43;90.39;99026.06;5112688;28;20048;-81
2021/08/15 01:31:52;;;;;;;10.83;7.90;;;;;;;17.46;92.43;99050.34;5113029;28;20047;-81
2021/08/15 01:34:18;;;;;;;12.40;7.75;;;;;;;17.57;92.22;99054.19;5112311;28;20297;-81
2021/08/15 01:36:45;;;;;;;11.45;7.57;;;;;;;17.54;90.59;99042.81;5112514;28;20055;-81
2021/08/15 01:39:12;;;;;;;9.60;7.80;;;;;;;17.35;90.77;99042.88;5094086;28;20035;-81
2021/08/15 01:41:39;;;;;;;12.48;7.55;;;;;;;17.14;91.05;99023.06;5109611;28;20383;-81
2021/08/15 01:44:06;;;;;;;11.95;7.70;;;;;;;17.26;91.25;99041.53;5092796;28;20055;-81
2021/08/15 01:46:35;;;;;;;10.45;7.32;;;;;;;17.07;91.44;99016.84;5106276;28;20487;-81
2021/08/15 01:49:03;;;;;;;10.07;7.03;;;;;;;17.06;91.54;99008.84;5112680;28;20059;-81
2021/08/15 01:51:31;;;;;;;10.10;7.55;;;;;;;17.16;91.84;99029.19;5112297;28;20097;-81
2021/08/15 01:54:00;;;;;;;9.20;6.90;;;;;;;17.11;92.15;99025.44;5112696;28;20055;-80
2021/08/15 01:56:26;;;;;;;11.00;7.05;;;;;;;17.26;91.76;99027.78;5112376;28;20078;-81
2021/08/15 01:58:53;;;;;;;13.27;7.43;;;;;;;17.31;92.05;99026.03;5111892;28;20043;-81
2021/08/15 02:01:22;;;;;;;11.45;7.40;;;;;;;17.49;90.73;99038.03;5112218;28;20059;-81
2021/08/15 02:03:51;;;;;;;10.15;7.20;;;;;;;17.45;89.61;99034.91;5111942;28;20410;-81
2021/08/15 02:06:18;;;;;;;10.95;7.40;;;;;;;17.37;89.08;99026.16;5112155;28;20052;-81
2021/08/15 02:08:46;;;;;;;9.02;6.63;;;;;;;17.21;89.61;99017.50;5112450;28;20109;-81
2021/08/15 02:11:13;;;;;;;10.05;7.55;;;;;;;17.22;89.58;99032.06;5112169;28;20043;-81
2021/08/15 02:13:40;;;;;;;8.77;7.20;;;;;;;17.07;90.47;99035.19;5111635;28;20052;-81
2021/08/15 02:16:08;;;;;;;9.13;6.60;;;;;;;17.00;90.37;99024.31;5112410;28;20047;-81
2021/08/15 02:18:35;;;;;;;10.77;6.95;;;;;;;16.81;91.23;99032.50;5112045;28;20453;-81
2021/08/15 02:21:03;;;;;;;11.55;7.38;;;;;;;16.84;92.14;99030.38;5112526;28;20055;-80
2021/08/15 02:23:30;;;;;;;12.00;7.35;;;;;;;16.87;92.16;99033.53;5111871;28;20104;-81
2021/08/15 02:25:57;;;;;;;14.52;7.80;;;;;;;17.04;91.16;99028.28;5112249;28;20105;-81
2021/08/15 02:28:23;;;;;;;11.98;7.13;;;;;;;17.13;90.76;99034.28;5112027;28;20040;-81
2021/08/15 02:30:50;;;;;;;10.65;7.15;;;;;;;17.09;90.44;99028.41;5110897;28;20105;-81
2021/08/15 02:33:17;;;;;;;10.38;7.47;;;;;;;16.77;90.77;99016.72;5111765;28;20104;-81
2021/08/15 02:35:44;;;;;;;14.48;8.23;;;;;;;16.72;91.69;99031.13;5112272;28;20175;-81
2021/08/15 02:38:12;;;;;;;10.15;7.60;;;;;;;16.66;92.17;99029.31;5111942;28;20047;-80
2021/08/15 02:40:40;;;;;;;10.15;7.15;;;;;;;16.67;91.86;99017.28;5112513;28;20453;-81
2021/08/15 02:43:07;;;;;;;14.43;8.43;;;;;;;16.95;92.29;99033.25;5111341;28;20052;-80
2021/08/15 02:45:34;;;;;;;10.48;7.63;;;;;;;16.88;91.68;99024.25;5111717;28;20105;-80
2021/08/15 02:48:01;;;;;;;14.27;7.47;;;;;;;16.78;91.67;99021.97;5111255;28;20040;-80
2021/08/15 02:50:28;;;;;;;11.82;7.70;;;;;;;16.68;92.42;99029.06;5116155;28;20051;-80
2021/08/15 02:52:55;;;;;;;12.20;6.95;;;;;;;16.64;91.98;99021.31;5115858;28;20048;-80
2021/08/15 02:55:23;;;;;;;11.45;7.25;;;;;;;16.57;92.32;99023.28;5115682;28;20064;-80
2021/08/15 02:57:50;;;;;;;10.35;6.95;;;;;;;16.63;92.37;99022.38;5116186;28;20051;-80
2021/08/15 03:00:17;;;;;;;11.80;7.38;;;;;;;16.69;92.26;99012.38;5115436;28;20100;-80
2021/08/15 03:02:43;;;;;;;9.93;7.63;;;;;;;16.80;91.98;99027.25;5115863;28;20097;-80
2021/08/15 03:05:12;;;;;;;10.25;7.32;;;;;;;16.76;91.65;99015.06;5112236;28;20052;-80
2021/08/15 03:07:39;;;;;;;12.80;7.10;;;;;;;16.70;91.58;99015.97;5115683;28;20499;-80
2021/08/15 03:10:07;;;;;;;12.75;6.65;;;;;;;16.62;91.78;99028.09;5115420;28;20055;-81
2021/08/15 03:12:36;;;;;;;9.52;7.18;;;;;;;16.48;92.30;99010.09;5114835;28;20483;-81
2021/08/15 03:15:03;;;;;;;11.68;7.18;;;;;;;16.39;92.99;99018.59;5115306;28;20066;-81
2021/08/15 03:17:30;;;;;;;13.70;7.45;;;;;;;16.27;93.55;99017.69;5115269;28;20050;-81
2021/08/15 03:19:57;;;;;;;12.10;7.20;;;;;;;16.45;92.79;99008.63;5102730;28;20051;-81
2021/08/15 03:22:23;;;;;;;13.00;7.35;;;;;;;16.59;92.37;99020.31;5111914;28;20457;-81
2021/08/15 03:24:50;;;;;;;12.18;9.20;;;;;;;16.68;92.76;99013.47;5115171;28;20048;-80
2021/08/15 03:27:17;;;;;;;11.65;7.90;;;;;;;16.56;92.54;99016.13;5115263;28;20036;-80
2021/08/15 03:29:45;;;;;;;13.10;7.80;;;;;;;16.48;92.52;99012.84;5114902;28;20047;-80
2021/08/15 03:32:12;;;;;;;10.20;7.43;;;;;;;16.49;93.05;99020.84;5115036;28;20429;-80
2021/08/15 03:34:39;;;;;;;9.65;7.53;;;;;;;16.41;93.42;99023.88;5114399;28;20059;-80
2021/08/15 03:37:05;;;;;;;12.75;7.82;;;;;;;16.39;93.34;99013.13;5114687;28;20051;-80
2021/08/15 03:39:32;;;;;;;11.15;7.97;;;;;;;16.35;93.72;99000.09;5114874;28;20483;-81
2021/08/15 03:42:00;;;;;;;14.73;8.80;;;;;;;16.48;95.29;99016.41;5115138;28;20415;-81
2021/08/15 03:44:28;;;;;;;12.40;8.50;;;;;;;16.48;94.58;99010.91;5114553;28;20457;-81
2021/08/15 03:46:56;;;;;;;11.80;8.20;;;;;;;16.56;93.67;99018.00;5114471;28;20050;-81
2021/08/15 03:49:24;;;;;;;9.75;7.78;;;;;;;16.48;94.77;99018.31;5114415;28;21230;-81
2021/08/15 03:51:51;;;;;;;10.57;8.90;;;;;;;16.58;93.87;99010.41;5114236;28;20044;-80
2021/08/15 03:54:20;;;;;;;14.32;8.68;;;;;;;16.53;94.55;99000.13;5114624;28;20059;-80
2021/08/15 03:56:47;;;;;;;13.55;7.63;;;;;;;16.57;94.43;99012.28;5114529;28;20043;-80
2021/08/15 03:59:14;;;;;;;12.02;7.55;;;;;;;16.57;93.75;99006.81;5114983;28;20108;-81
2021/08/15 04:01:41;;;;;;;10.52;7.55;;;;;;;16.62;93.46;99003.41;5114246;28;20092;-80
2021/08/15 04:04:09;;;;;;;11.85;7.40;;;;;;;16.55;93.04;99011.69;5114368;28;20044;-81
2021/08/15 04:06:36;;;;;;;10.98;6.75;;;;;;;16.33;93.55;98989.34;5109737;28;20056;-81
2021/08/15 04:09:03;;;;;;;11.90;7.13;;;;;;;16.64;92.75;99009.50;5113370;28;20564;-81
2021/08/15 04:11:30;;;;;;;9.82;7.43;;;;;;;16.53;92.52;98988.28;5114556;28;20048;-80
2021/08/15 04:13:56;;;;;;;10.88;7.78;;;;;;;16.38;93.83;98994.13;5113800;28;20115;-81
2021/08/15 04:16:23;;;;;;;9.00;6.95;;;;;;;16.53;93.40;99004.75;5114148;28;20089;-81
2021/08/15 04:18:50;;;;;;;12.13;8.00;;;;;;;16.48;92.58;98985.41;5113737;28;20051;-81
2021/08/15 04:21:18;;;;;;;11.40;7.03;;;;;;;16.39;93.16;98999.41;5114399;28;20056;-81
2021/08/15 04:23:45;;;;;;;11.15;8.02;;;;;;;16.36;93.97;99008.09;5099652;28;20050;-80
2021/08/15 04:26:12;;;;;;;9.98;7.97;;;;;;;16.41;93.75;98986.31;5105836;28;20116;-81
2021/08/15 04:28:38;;;;;;;12.63;7.03;;;;;;;16.45;93.54;98995.78;5113061;28;20048;-81
2021/08/15 04:31:05;;;;;;;12.00;6.85;;;;;;;16.31;93.78;98990.66;5113336;28;20483;-81
2021/08/15 04:33:32;;;;;;;12.82;8.13;;;;;;;16.16;93.96;98983.59;5112223;28;20066;-81
2021/08/15 04:35:59;;;;;;;11.30;8.88;;;;;;;16.27;95.78;98993.84;5113834;28;20052;-81
2021/08/15 04:38:27;;;;;;;14.32;8.25;;;;;;;16.31;95.75;98983.25;5113429;28;20043;-80
2021/08/15 04:40:54;;;;;;;13.43;8.27;;;;;;;16.48;94.62;98999.94;5112100;28;20097;-81
2021/08/15 04:43:21;;;;;;;10.95;7.90;;;;;;;16.46;94.37;99002.91;5113239;28;20047;-81
2021/08/15 04:45:48;;;;;;;11.65;7.75;;;;;;;16.59;93.27;98988.22;5112343;28;20456;-80
2021/08/15 04:48:16;;;;;;;14.00;8.05;;;;;;;16.69;92.83;98979.44;5113494;28;20054;-81
2021/08/15 04:50:44;;;;;;;9.45;7.50;;;;;;;16.55;93.90;98989.75;5112647;28;20047;-81
2021/08/15 04:53:11;;;;;;;10.10;8.10;;;;;;;16.43;94.30;98988.81;5112665;28;20380;-81
2021/08/15 04:55:39;;;;;;;17.02;8.48;;;;;;;16.51;94.68;98990.44;5112906;28;20422;-81
2021/08/15 04:58:06;;;;;;;13.20;8.25;;;;;;;16.59;93.99;98996.47;5112517;28;20047;-81
2021/08/15 05:00:33;;;;;;;14.00;7.88;;;;;;;16.57;93.86;98981.28;5112583;28;20392;-80
2021/08/15 05:03:00;;;;;;;10.80;8.07;;;;;;;16.88;92.32;98996.78;5112662;28;20048;-81
2021/08/15 05:05:27;;;;;;;10.80;7.97;;;;;;;16.88;92.34;98996.78;5112715;28;20055;-81
2021/08/15 05:07:54;;;;;;;10.85;7.18;;;;;;;16.83;92.56;98996.63;5112357;28;20449;-81
2021/08/15 05:10:21;;;;;;;15.57;6.97;;;;;;;16.60;93.08;98981.66;5112814;28;20391;-80
2021/08/15 05:12:49;;;;;;;14.15;7.93;;;;;;;16.56;93.40;98991.44;5110116;28;20445;-81
2021/08/15 05:15:16;;;;;;;11.65;8.23;;;;;;;16.93;92.26;99002.41;5112951;28;20051;-81
2021/08/15 05:17:43;;;;;;;10.27;7.70;;;;;;;16.95;92.20;99002.19;5112141;28;20048;-81
2021/08/15 05:20:11;;;;;;;11.30;7.15;;;;;;;16.74;93.05;99008.94;5112938;28;20070;-81
2021/08/15 05:22:37;;;;;;;11.73;7.28;;;;;;;16.76;93.32;99001.34;5112163;28;20058;-81
2021/08/15 05:25:05;;;;;;;15.55;9.20;;;;;;;17.03;92.34;99007.38;5112375;28;20491;-81
2021/08/15 05:27:32;;;;;;;13.15;8.38;;;;;;;16.94;93.69;99008.75;5111897;28;20047;-80
2021/08/15 05:30:01;;;;;;;11.27;8.85;;;;;;;17.12;93.14;99000.50;5104137;28;20399;-80
2021/08/15 05:32:28;;;;;;;14.88;8.90;;;;;;;17.37;92.57;99013.25;5112365;28;20055;-81
2021/08/15 05:34:55;;;;;;;15.60;9.00;;;;;;;17.50;92.70;99009.47;5111997;28;20073;-81
2021/08/15 05:37:22;;;;;;;14.52;9.48;;;;;;;17.68;89.92;99027.81;5111334;28;20048;-80
2021/08/15 05:39:48;;;;;;;13.02;8.23;;;;;;;17.69;89.02;99021.25;5112692;28;20392;-81
2021/08/15 05:42:16;;;;;;;13.25;8.20;;;;;;;17.75;88.72;99024.94;5111538;28;20101;-81
2021/08/15 05:44:43;;;;;;;11.00;7.88;;;;;;;17.87;89.10;99017.59;5112237;28;20055;-81
2021/08/15 05:47:11;;;;;;;12.95;8.45;;;;;;;17.73;90.63;99007.88;5100296;28;20054;-81
2021/08/15 05:49:38;;;;;;;15.48;8.68;;;;;;;17.77;90.21;99000.84;5112018;28;20475;-81
2021/08/15 05:52:05;;;;;;;11.70;8.18;;;;;;;18.04;90.35;99020.50;5110797;28;20048;-81
2021/08/15 05:54:32;;;;;;;12.15;8.73;;;;;;;18.11;89.21;99018.50;5111422;28;20120;-81
2021/08/15 05:56:58;;;;;;;9.90;8.00;;;;;;;18.59;86.89;99000.03;5112080;28;20097;-81
2021/08/15 05:59:25;;;;;;;13.40;8.65;;;;;;;18.84;85.59;99005.25;5111936;28;20047;-81
2021/08/15 06:01:52;;;;;;;12.95;8.70;;;;;;;19.12;83.90;98991.81;5111599;28;20490;-81
2021/08/15 06:04:20;;;;;;;13.27;7.97;;;;;;;19.25;84.11;99003.41;5108417;28;20043;-81
2021/08/15 06:06:47;;;;;;;12.73;7.60;;;;;;;18.98;85.14;99003.09;5111460;28;20051;-81
2021/08/15 06:09:14;;;;;;;10.32;7.47;;;;;;;19.44;83.97;99008.69;5111420;28;20056;-81
2021/08/15 06:11:41;;;;;;;13.77;7.47;;;;;;;20.07;81.58;99009.56;5111979;28;20054;-81
2021/08/15 06:14:08;;;;;;;13.02;7.97;;;;;;;20.36;79.94;99005.88;5111697;28;20108;-81
2021/08/15 06:16:35;;;;;;;17.52;7.82;;;;;;;20.58;78.38;99003.13;5111598;28;20062;-81
2021/08/15 06:19:01;;;;;;;10.25;7.55;;;;;;;20.74;78.21;99004.22;5108987;28;20078;-81
2021/08/15 06:21:30;;;;;;;12.82;7.35;;;;;;;20.91;76.69;98990.34;5110478;28;20108;-81
2021/08/15 06:23:56;;;;;;;13.05;7.15;;;;;;;21.38;75.81;98993.38;5094424;28;20052;-81
2021/08/15 06:26:23;;;;;;;12.35;8.25;;;;;;;21.73;74.95;98985.75;5106210;28;20100;-80
2021/08/15 06:28:51;;;;;;;13.70;7.57;;;;;;;21.56;75.20;98981.16;5116067;28;20051;-80
2021/08/15 06:31:18;;;;;;;14.90;8.35;;;;;;;21.96;74.66;99003.91;5116021;28;20043;-81
2021/08/15 06:33:45;;;;;;;10.23;7.35;;;;;;;22.01;72.77;99001.22;5115681;28;20043;-79
2021/08/15 06:36:11;;;;;;;10.65;7.30;;;;;;;21.78;72.64;98998.78;5114923;28;20058;-81
2021/08/15 06:38:40;;;;;;;11.65;7.57;;;;;;;21.48;74.20;99000.13;5115297;28;20051;-79
2021/08/15 06:41:07;;;;;;;9.57;7.25;;;;;;;21.78;74.55;98988.53;5124964;27;20062;-79
2021/08/15 06:43:34;;;;;;;14.75;7.53;;;;;;;22.42;71.67;98997.94;5115438;27;20121;-80
2021/08/15 06:46:01;;;;;;;14.15;7.95;;;;;;;22.57;70.96;98975.88;5115918;28;20053;-81
2021/08/15 06:48:28;;;;;;;12.75;8.00;;;;;;;22.55;70.91;98986.38;5108244;28;20047;-80
2021/08/15 06:50:58;;;;;;;12.15;7.55;;;;;;;22.90;69.67;98989.59;5115189;28;20188;-80
2021/08/15 06:53:25;;;;;;;11.77;7.35;;;;;;;22.87;69.93;98982.66;5114954;28;20047;-80
2021/08/15 06:55:53;;;;;;;12.75;7.28;;;;;;;22.97;70.20;98991.03;5113966;27;20053;-81
2021/08/15 06:58:20;;;;;;;13.25;7.88;;;;;;;23.37;69.55;98985.91;5126727;27;20048;-81
2021/08/15 07:00:46;;;;;;;11.77;7.70;;;;;;;23.84;67.95;98970.97;5116029;28;20047;-81
2021/08/15 07:03:13;;;;;;;19.35;7.90;;;;;;;24.00;67.54;98959.94;5114728;28;20116;-81
2021/08/15 07:05:40;;;;;;;10.50;7.38;;;;;;;24.23;67.01;98975.16;5114885;28;20530;-81
2021/08/15 07:08:07;;;;;;;13.45;8.35;;;;;;;24.20;67.42;98968.22;5115104;28;20048;-82
2021/08/15 07:10:33;;;;;;;11.93;8.32;;;;;;;24.39;67.28;98978.78;5115270;28;20052;-81
2021/08/15 07:13:05;;;;;;;16.55;9.27;;;;;;;24.27;66.36;98972.66;5113919;28;20043;-81
2021/08/15 07:15:32;;;;;;;12.95;9.07;;;;;;;24.38;66.74;98971.53;5115160;28;20052;-81
2021/08/15 07:17:59;;;;;;;11.60;7.93;;;;;;;24.77;66.51;98975.66;5115343;28;20048;-80
2021/08/15 07:20:26;;;;;;;14.82;10.05;;;;;;;24.83;65.93;98963.38;5114739;28;20048;-81
2021/08/15 07:22:53;;;;;;;12.90;9.65;;;;;;;24.54;66.67;98962.06;5114373;28;20043;-81
2021/08/15 07:25:20;;;;;;;16.10;9.93;;;;;;;24.56;66.36;98968.16;5115142;28;20047;-81
2021/08/15 07:27:49;;;;;;;13.00;9.90;;;;;;;24.70;66.16;98956.47;5114888;28;20399;-80
2021/08/15 07:30:17;;;;;;;16.77;9.88;;;;;;;24.95;65.93;98958.34;5101100;28;20487;-81
2021/08/15 07:32:52;;;;;;;14.15;9.88;;;;;;;25.47;64.61;98970.03;5101572;28;20396;-81
2021/08/15 07:35:19;;;;;;;16.45;9.45;;;;;;;25.12;65.03;98946.84;5093378;28;20048;-81
2021/08/15 07:37:46;;;;;;;22.02;9.10;;;;;;;25.19;65.07;98963.22;5094500;28;20052;-81
2021/08/15 07:40:13;;;;;;;14.65;8.63;;;;;;;25.38;64.81;98955.91;5113627;28;20051;-81
2021/08/15 07:42:41;;;;;;;14.00;9.25;;;;;;;25.66;64.58;98963.78;5114846;28;20039;-82
2021/08/15 07:45:09;;;;;;;16.60;9.45;;;;;;;25.33;64.25;98952.31;5113451;28;20047;-81
2021/08/15 07:47:38;;;;;;;16.98;9.25;;;;;;;25.51;64.77;98942.47;5106481;28;20048;-81
2021/08/15 07:50:08;;;;;;;12.98;8.85;;;;;;;25.52;65.14;98932.97;5103465;28;20551;-81
2021/08/15 07:52:36;;;;;;;14.10;8.90;;;;;;;25.50;65.67;98933.28;5124633;27;20043;-81
2021/08/15 07:55:05;;;;;;;14.13;9.18;;;;;;;25.54;64.77;98948.28;5113308;28;20055;-81
2021/08/15 07:57:32;;;;;;;19.33;9.27;;;;;;;25.60;64.45;98943.50;5114180;28;20043;-81
2021/08/15 07:59:58;;;;;;;14.68;9.38;;;;;;;25.11;65.80;98938.78;5114183;28;20093;-82
2021/08/15 08:02:26;;;;;;;11.68;9.07;;;;;;;25.56;66.36;98934.91;5114066;28;20051;-81
2021/08/15 08:04:54;;;;;;;16.23;8.90;;;;;;;25.47;65.74;98938.59;5107813;28;20442;-81
2021/08/15 08:07:22;;;;;;;14.23;9.05;;;;;;;25.63;64.83;98942.09;5114240;28;20057;-81
2021/08/15 08:09:49;;;;;;;14.85;9.07;;;;;;;25.66;65.07;98950.69;5114362;28;20051;-81
2021/08/15 08:12:17;;;;;;;15.65;9.00;;;;;;;25.65;65.00;98946.25;5113498;28;20414;-81
2021/08/15 08:14:46;;;;;;;16.63;9.32;;;;;;;25.75;64.65;98945.34;5113731;28;20051;-81
2021/08/15 08:17:13;;;;;;;13.55;9.25;;;;;;;25.77;64.78;98952.28;5114085;28;20048;-81
2021/08/15 08:19:41;;;;;;;12.48;8.73;;;;;;;25.67;65.11;98941.25;5113598;28;20055;-81
2021/08/15 08:22:14;;;;;;;14.48;9.23;;;;;;;25.64;65.90;98944.59;5112810;28;20100;-81
2021/08/15 08:24:41;;;;;;;16.30;9.43;;;;;;;25.67;65.08;98932.88;5113225;28;20116;-80
2021/08/15 08:27:07;;;;;;;20.70;10.20;;;;;;;25.99;63.70;98931.53;5113989;28;20054;-81
2021/08/15 08:29:34;;;;;;;12.52;9.40;;;;;;;26.02;64.56;98925.38;5114078;28;20108;-81
2021/08/15 08:32:01;;;;;;;15.32;9.10;;;;;;;26.14;65.50;98925.81;5113278;28;20105;-81
2021/08/15 08:34:28;;;;;;;13.07;9.70;;;;;;;26.19;65.47;98912.97;5113226;28;20048;-81
2021/08/15 08:36:55;;;;;;;12.77;9.13;;;;;;;25.88;65.63;98916.84;5112969;28;20048;-80
2021/08/15 08:39:23;;;;;;;16.27;8.90;;;;;;;25.99;64.88;98917.59;5113447;28;20498;-81
2021/08/15 08:41:52;;;;;;;15.55;9.65;;;;;;;25.96;64.61;98924.56;5112985;28;20055;-81
2021/08/15 08:44:20;;;;;;;11.05;8.95;;;;;;;25.67;65.02;98910.63;5113115;28;20147;-81
2021/08/15 08:46:48;;;;;;;15.98;9.52;;;;;;;25.95;64.84;98920.13;5112174;28;20047;-81
2021/08/15 08:49:16;;;;;;;16.73;10.68;;;;;;;26.03;66.16;98921.47;5111788;28;20078;-81
2021/08/15 08:51:45;;;;;;;13.63;9.02;;;;;;;26.09;64.90;98909.16;5113079;28;20111;-81
2021/08/15 08:54:13;;;;;;;10.73;8.77;;;;;;;26.42;63.44;98909.38;5112893;28;20058;-81
2021/08/15 08:56:41;;;;;;;11.85;8.55;;;;;;;26.44;64.64;98915.47;5113617;28;20297;-81
2021/08/15 08:59:08;;;;;;;11.55;9.15;;;;;;;26.35;63.93;98897.72;5112505;28;20128;-81
2021/08/15 09:01:36;;;;;;;11.82;8.55;;;;;;;26.42;64.49;98889.84;5113224;28;20047;-81
2021/08/15 09:04:03;;;;;;;11.95;8.30;;;;;;;26.65;63.39;98909.66;5112227;28;20047;-80
2021/08/15 09:06:31;;;;;;;14.65;9.57;;;;;;;26.78;62.43;98908.13;5106932;28;20611;-79
2021/08/15 09:09:09;;;;;;;13.07;8.40;;;;;;;26.74;61.53;98893.94;5101592;28;20422;-79
2021/08/15 09:11:36;;;;;;;16.83;9.57;;;;;;;26.77;61.92;98895.31;5113083;28;20048;-79
2021/08/15 09:14:06;;;;;;;12.88;9.57;;;;;;;26.71;61.15;98902.06;5111996;28;20441;-81
2021/08/15 09:16:56;;;;;;;16.42;8.35;;;;;;;26.47;60.40;98878.63;5113124;28;20048;-81
2021/08/15 09:19:26;;;;;;;;;;;;;;;26.72;59.61;98895.38;5112857;28;20392;-81
2021/08/15 09:21:55;;;;;;;13.00;8.93;;;;;;;26.96;61.16;98878.59;5112775;28;19919;-82
2021/08/15 09:24:22;;;;;;;11.25;7.68;;;;;;;27.15;60.77;98886.97;5108919;28;20047;-81
2021/08/15 09:26:58;;;;;;;12.38;8.20;;;;;;;27.19;58.05;98871.31;5113108;28;20043;-81
2021/08/15 09:29:26;;;;;;;10.65;7.70;;;;;;;27.26;58.54;98877.31;5112886;28;20621;-81
2021/08/15 09:31:54;;;;;;;15.75;7.88;;;;;;;27.27;59.17;98862.25;5112523;28;20260;-81
2021/08/15 09:34:33;;;;;;;9.63;7.75;;;;;;;27.30;56.91;98856.06;5111224;28;20108;-82
2021/08/15 09:37:08;;;;;;;11.55;8.50;;;;;;;27.20;57.74;98861.78;5112399;28;20302;-79
2021/08/15 09:39:40;;;;;;;13.75;7.68;;;;;;;27.45;57.66;98837.44;5111979;28;20047;-81
2021/08/15 09:42:10;;;;;;;15.02;7.95;;;;;;;27.86;57.88;98848.69;5112290;28;20052;-81
2021/08/15 09:44:39;;;;;;;11.02;8.52;;;;;;;27.76;59.32;98846.09;5112804;28;20134;-82
2021/08/15 09:47:08;;;;;;;9.90;7.90;;;;;;;27.63;56.50;98833.75;5111446;28;20047;-81
2021/08/15 09:49:38;;;;;;;14.60;7.80;;;;;;;27.72;58.45;98839.47;5112770;27;20055;-81
2021/08/15 09:52:09;;;;;;;;;;;;;;;27.77;58.38;98833.78;5112753;27;20051;-82
2021/08/15 09:54:36;;;;;;;19.23;7.90;;;;;;;27.73;57.65;98829.94;5111425;28;19924;-81
2021/08/15 09:57:06;;;;;;;11.60;7.80;;;;;;;27.92;57.49;98841.06;5103222;28;20074;-81
2021/08/15 09:59:36;;;;;;;11.70;7.53;;;;;;;28.04;56.08;98826.63;5111710;28;20506;-81
2021/08/15 10:02:07;;;;;;;;;;;;;;;28.13;55.60;98841.53;5112851;28;20055;-80
2021/08/15 10:04:34;;;;;;;12.77;8.52;;;;;;;28.47;56.44;98829.13;5111019;28;19942;-79
2021/08/15 10:07:01;;;;;;;12.77;8.63;;;;;;;28.78;54.73;98831.28;5111785;28;20058;-80
2021/08/15 10:09:32;;;;;;;11.27;7.70;;;;;;;28.68;52.98;98832.34;5111719;28;20376;-80
2021/08/15 10:11:59;;;;;;;11.93;7.00;;;;;;;28.56;54.68;98821.66;5102766;28;20399;-79
2021/08/15 10:14:25;;;;;;;12.00;7.72;;;;;;;28.41;53.80;98831.19;5098072;28;20146;-80
2021/08/15 10:16:58;;;;;;;10.07;7.80;;;;;;;28.33;55.37;98825.50;5111855;28;20047;-79
2021/08/15 10:19:35;;;;;;;13.43;6.93;;;;;;;28.47;54.54;98840.31;5111848;28;20096;-80
2021/08/15 10:22:03;;;;;;;10.85;6.85;;;;;;;28.88;52.86;98844.22;5111866;28;20043;-80
2021/08/15 10:24:45;;;;;;;12.27;6.82;;;;;;;28.68;52.49;98845.47;5111815;28;20063;-80
2021/08/15 10:27:44;;;;;;;8.90;7.43;;;;;;;28.96;54.92;98832.25;5101378;28;20040;-80
2021/08/15 10:30:44;;;;;;;13.00;6.55;;;;;;;29.10;52.06;98819.06;5092038;28;20046;-80
2021/08/15 10:33:24;;;;;;;9.93;7.05;;;;;;;28.74;53.59;98807.88;5108653;28;20453;-80
2021/08/15 10:36:20;;;;;;;11.73;7.25;;;;;;;28.51;52.88;98807.78;5111816;28;20077;-80
2021/08/15 10:38:48;;;;;;;8.50;6.95;;;;;;;28.67;53.91;98804.69;5103856;28;20048;-80
2021/08/15 10:41:48;;;;;;;9.25;6.80;;;;;;;29.12;52.77;98801.97;5111682;28;20039;-80
2021/08/15 10:44:15;;;;;;;8.43;6.88;;;;;;;29.30;51.67;98800.97;5106266;28;20055;-80
2021/08/15 10:47:14;;;;;;;7.65;6.47;;;;;;;29.37;52.29;98797.72;5111447;28;20075;-80
2021/08/15 10:49:48;;;;;;;8.88;7.15;;;;;;;29.20;52.46;98781.59;5110686;28;20052;-80
2021/08/15 10:52:38;;;;;;;14.23;7.57;;;;;;;29.33;50.26;98799.53;5111507;28;20388;-80
2021/08/15 10:55:14;;;;;;;10.50;7.57;;;;;;;29.71;52.06;98799.09;5110854;28;20610;-81
2021/08/15 10:57:52;;;;;;;17.38;6.88;;;;;;;29.86;50.75;98800.69;5111764;28;20073;-81
2021/08/15 11:00:43;;;;;;;13.65;6.63;;;;;;;29.48;51.81;98801.91;5111531;28;20055;-81
2021/08/15 11:03:36;;;;;;;9.25;6.85;;;;;;;29.56;50.93;98813.50;5091275;28;20048;-80
2021/08/15 11:06:03;;;;;;;11.90;6.90;;;;;;;29.27;50.78;98810.00;5108777;28;20056;-80
2021/08/15 11:08:56;;;;;;;10.98;7.32;;;;;;;29.60;50.95;98812.53;5111697;28;20047;-80
2021/08/15 11:11:30;;;;;;;12.27;7.32;;;;;;;29.43;50.54;98793.66;5114695;28;20047;-80
2021/08/15 11:14:28;;;;;;;12.32;7.85;;;;;;;29.56;52.33;98800.31;5115365;28;20097;-80
2021/08/15 11:16:57;;;;;;;15.77;7.18;;;;;;;29.99;52.57;98796.13;5106374;28;20081;-80
2021/08/15 11:19:31;;;;;;;10.13;7.17;;;;;;;29.87;52.23;98788.34;5094050;28;20496;-80
2021/08/15 11:22:10;;;;;;;10.73;7.03;;;;;;;29.58;50.83;98758.81;5109250;28;20047;-80
2021/08/15 11:24:40;;;;;;;12.63;7.65;;;;;;;29.46;52.72;98756.63;5114943;28;20491;-80
2021/08/15 11:27:07;;;;;;;;;;;;;;;29.29;52.75;98748.94;5115309;28;20100;-80
2021/08/15 11:29:34;;;;;;;13.05;7.18;;;;;;;29.33;53.01;98721.13;5114710;28;20354;-80
2021/08/15 11:32:01;;;;;;;12.65;6.78;;;;;;;29.46;52.42;98747.38;5114864;28;20069;-80
2021/08/15 11:34:28;;;;;;;10.05;7.47;;;;;;;30.14;50.58;98744.41;5095738;28;20097;-80